Time;durP1;ratioP1;P1;durP2;ratioP2;P2;SDS_P1;SDS_P2;PMS_P1;PMS_P2;Temp;Humidity;BMP_temperature;BMP_pressure;BME280_temperature;BME280_humidity;BME280_pressure;Samples;Min_cycle;Max_cycle;Signal;HPM_P1;HPM_P2
2022/11/22 00:00:26;;;;;;;2.7;2;;;;;;;;;;;;;
2022/11/22 00:02:55;;;;;;;2.9;2.1;;;;;;;;;;;;;
2022/11/22 00:05:23;;;;;;;3;2.4;;;;;;;;;;;;;
2022/11/22 00:07:49;;;;;;;3.4;2.5;;;;;;;;;;;;;
2022/11/22 00:10:18;;;;;;;3.1;2.6;;;;;;;;;;;;;
2022/11/22 00:12:47;;;;;;;5;2.7;;;;;;;;;;;;;
2022/11/22 00:15:13;;;;;;;5.6;2.9;;;;;;;;;;;;;
2022/11/22 00:17:44;;;;;;;4.3;2.7;;;;;;;;;;;;;
2022/11/22 00:20:13;;;;;;;3.6;2.2;;;;;;;;;;;;;
2022/11/22 00:22:42;;;;;;;3.2;2.3;;;;;;;;;;;;;
2022/11/22 00:25:15;;;;;;;3.5;2.4;;;;;;;;;;;;;
2022/11/22 00:27:46;;;;;;;3.1;2.3;;;;;;;;;;;;;
2022/11/22 00:30:12;;;;;;;2.7;1.9;;;;;;;;;;;;;
2022/11/22 00:32:37;;;;;;;2.7;2;;;;;;;;;;;;;
2022/11/22 00:35:06;;;;;;;3.1;1.6;;;;;;;;;;;;;
2022/11/22 00:37:34;;;;;;;2.8;1.7;;;;;;;;;;;;;
2022/11/22 00:40:08;;;;;;;1.9;1.5;;;;;;;;;;;;;
2022/11/22 00:42:37;;;;;;;2.4;1.7;;;;;;;;;;;;;
2022/11/22 00:45:08;;;;;;;1.6;1.5;;;;;;;;;;;;;
2022/11/22 00:47:38;;;;;;;2.9;1.5;;;;;;;;;;;;;
2022/11/22 00:50:07;;;;;;;4;1.4;;;;;;;;;;;;;
2022/11/22 00:52:34;;;;;;;1.3;1.2;;;;;;;;;;;;;
2022/11/22 00:55:04;;;;;;;1.6;1.4;;;;;;;;;;;;;
2022/11/22 00:57:36;;;;;;;2.2;1.7;;;;;;;;;;;;;
2022/11/22 01:00:08;;;;;;;3.1;1.7;;;;;;;;;;;;;
2022/11/22 01:02:37;;;;;;;3.6;1.9;;;;;;;;;;;;;
2022/11/22 01:05:06;;;;;;;2.7;2;;;;;;;;;;;;;
2022/11/22 01:07:35;;;;;;;2.7;2.2;;;;;;;;;;;;;
2022/11/22 01:10:07;;;;;;;2.2;1.8;;;;;;;;;;;;;
2022/11/22 01:12:38;;;;;;;2.6;1.9;;;;;;;;;;;;;
2022/11/22 01:15:19;;;;;;;2.2;1.7;;;;;;;;;;;;;
2022/11/22 01:17:51;;;;;;;1.9;1.7;;;;;;;;;;;;;
2022/11/22 01:20:20;;;;;;;2;1.7;;;;;;;;;;;;;
2022/11/22 01:22:49;;;;;;;1.5;1.4;;;;;;;;;;;;;
2022/11/22 01:25:24;;;;;;;1.5;1.2;;;;;;;;;;;;;
2022/11/22 01:27:56;;;;;;;1.1;1;;;;;;;;;;;;;
2022/11/22 01:30:24;;;;;;;1.7;0.9;;;;;;;;;;;;;
2022/11/22 01:33:20;;;;;;;1.6;1.5;;;;;;;;;;;;;
2022/11/22 01:35:53;;;;;;;1.6;1.2;;;;;;;;;;;;;
2022/11/22 01:38:22;;;;;;;1.6;1.3;;;;;;;;;;;;;
2022/11/22 01:40:50;;;;;;;1.3;1.1;;;;;;;;;;;;;
2022/11/22 01:43:19;;;;;;;1.2;1;;;;;;;;;;;;;
2022/11/22 01:45:51;;;;;;;1.7;1.3;;;;;;;;;;;;;
2022/11/22 01:48:19;;;;;;;3;1.2;;;;;;;;;;;;;
2022/11/22 01:50:46;;;;;;;1.1;0.9;;;;;;;;;;;;;
2022/11/22 01:53:11;;;;;;;1.2;1.1;;;;;;;;;;;;;
2022/11/22 01:55:36;;;;;;;2.4;1.2;;;;;;;;;;;;;
2022/11/22 01:58:03;;;;;;;1.3;1.2;;;;;;;;;;;;;
2022/11/22 02:00:31;;;;;;;4.3;3;;;;;;;;;;;;;
2022/11/22 02:02:56;;;;;;;3.2;1.6;;;;;;;;;;;;;
2022/11/22 02:05:21;;;;;;;1.4;1.3;;;;;;;;;;;;;
2022/11/22 02:07:46;;;;;;;1.5;1.3;;;;;;;;;;;;;
2022/11/22 02:10:14;;;;;;;1.6;1.2;;;;;;;;;;;;;
2022/11/22 02:12:39;;;;;;;1.4;1.3;;;;;;;;;;;;;
2022/11/22 02:15:04;;;;;;;1.6;1.5;;;;;;;;;;;;;
2022/11/22 02:17:29;;;;;;;1.4;1.3;;;;;;;;;;;;;
2022/11/22 02:19:55;;;;;;;1.4;1.1;;;;;;;;;;;;;
2022/11/22 02:22:20;;;;;;;1.6;1.4;;;;;;;;;;;;;
2022/11/22 02:24:45;;;;;;;1.8;1.4;;;;;;;;;;;;;
2022/11/22 02:27:10;;;;;;;1.2;1.1;;;;;;;;;;;;;
2022/11/22 02:29:35;;;;;;;1.3;1;;;;;;;;;;;;;
2022/11/22 02:32:01;;;;;;;1.2;1.1;;;;;;;;;;;;;
2022/11/22 02:34:26;;;;;;;1.8;1.5;;;;;;;;;;;;;
2022/11/22 02:36:51;;;;;;;1.9;1.7;;;;;;;;;;;;;
2022/11/22 02:39:16;;;;;;;1.8;1.5;;;;;;;;;;;;;
2022/11/22 02:41:44;;;;;;;2.7;1.5;;;;;;;;;;;;;
2022/11/22 02:44:09;;;;;;;1.9;1.2;;;;;;;;;;;;;
2022/11/22 02:46:34;;;;;;;2.2;1.5;;;;;;;;;;;;;
2022/11/22 02:48:59;;;;;;;1.6;1.4;;;;;;;;;;;;;
2022/11/22 02:51:25;;;;;;;1.6;1.4;;;;;;;;;;;;;
2022/11/22 02:53:51;;;;;;;1.9;1.3;;;;;;;;;;;;;
2022/11/22 02:56:16;;;;;;;1.8;1.2;;;;;;;;;;;;;
2022/11/22 02:58:41;;;;;;;1.7;1.1;;;;;;;;;;;;;
2022/11/22 03:01:08;;;;;;;1.8;1.2;;;;;;;;;;;;;
2022/11/22 03:03:32;;;;;;;2;1.3;;;;;;;;;;;;;
2022/11/22 03:06:01;;;;;;;1.3;1.2;;;;;;;;;;;;;
2022/11/22 03:08:24;;;;;;;1.2;1.1;;;;;;;;;;;;;
2022/11/22 03:10:50;;;;;;;1.2;1.1;;;;;;;;;;;;;
2022/11/22 03:13:15;;;;;;;1.3;1.2;;;;;;;;;;;;;
2022/11/22 03:15:44;;;;;;;1.4;1.2;;;;;;;;;;;;;
2022/11/22 03:18:11;;;;;;;2;1.6;;;;;;;;;;;;;
2022/11/22 03:20:36;;;;;;;4.1;1.5;;;;;;;;;;;;;
2022/11/22 03:23:02;;;;;;;1.7;1.5;;;;;;;;;;;;;
2022/11/22 03:25:27;;;;;;;1.8;1.5;;;;;;;;;;;;;
2022/11/22 03:27:53;;;;;;;2.7;1.7;;;;;;;;;;;;;
2022/11/22 03:30:32;;;;;;;2;1.8;;;;;;;;;;;;;
2022/11/22 03:32:58;;;;;;;2.1;1.9;;;;;;;;;;;;;
2022/11/22 03:35:23;;;;;;;2.4;1.7;;;;;;;;;;;;;
2022/11/22 03:37:50;;;;;;;1.7;1.5;;;;;;;;;;;;;
2022/11/22 03:40:15;;;;;;;1.7;1.2;;;;;;;;;;;;;
2022/11/22 03:42:42;;;;;;;3.4;1.6;;;;;;;;;;;;;
2022/11/22 03:45:07;;;;;;;3.3;1.4;;;;;;;;;;;;;
2022/11/22 03:47:32;;;;;;;2.7;1.8;;;;;;;;;;;;;
2022/11/22 03:49:57;;;;;;;2.5;1.5;;;;;;;;;;;;;
2022/11/22 03:52:24;;;;;;;1.2;1.1;;;;;;;;;;;;;
2022/11/22 03:54:49;;;;;;;1.8;1.3;;;;;;;;;;;;;
2022/11/22 03:57:15;;;;;;;1.1;1;;;;;;;;;;;;;
2022/11/22 03:59:39;;;;;;;1.8;1;;;;;;;;;;;;;
2022/11/22 04:02:36;;;;;;;1.4;1.1;;;;;;;5.31;87.61035;919.2563;;;;
2022/11/22 04:05:02;;;;;;;1.7;1.2;;;;;;;5.35;87.25781;919.2389;;;;
2022/11/22 04:07:28;;;;;;;1.5;1.3;;;;;;;5.42;86.9668;919.3006;;;;
2022/11/22 04:09:57;;;;;;;1.4;1.3;;;;;;;5.46;86.5918;919.351;;;;
2022/11/22 04:12:27;;;;;;;2.6;1.5;;;;;;;5.45;86.45508;919.3203;;;;
2022/11/22 04:15:07;;;;;;;2.2;1.7;;;;;;;5.39;86.51953;919.3106;;;;
2022/11/22 04:17:39;;;;;;;2.2;2;;;;;;;5.33;86.31641;919.2184;;;;
2022/11/22 04:21:32;;;;;;;1.9;1.7;;;;;;;5.31;86.48145;919.2737;;;;
2022/11/22 04:22:10;;;;;;;2.2;1.8;;;;;;;5.23;86.35254;919.2873;;;;
2022/11/22 04:27:02;;;;;;;2.7;1.8;;;;;;;5.38;86.24805;919.3856;;;;
2022/11/22 04:29:30;;;;;;;3.5;2.1;;;;;;;5.42;86.58301;919.3542;;;;
2022/11/22 04:34:20;;;;;;;3.8;2;;;;;;;5.47;86.66016;919.3368;;;;
2022/11/22 04:36:45;;;;;;;3.6;1.8;;;;;;;5.47;86.42285;919.4221;;;;
2022/11/22 04:39:15;;;;;;;2;1.6;;;;;;;5.4;86.84961;919.455;;;;
2022/11/22 04:41:40;;;;;;;4;1.4;;;;;;;5.49;86.7666;919.4654;;;;
2022/11/22 04:46:52;;;;;;;1.7;1.3;;;;;;;5.62;86.30664;919.5553;;;;
2022/11/22 04:49:20;;;;;;;3.2;1.3;;;;;;;5.62;86.02441;919.5585;;;;
2022/11/22 04:54:13;;;;;;;3.3;2.1;;;;;;;5.69;85.98145;919.649;;;;
2022/11/22 04:56:38;;;;;;;3.5;2.3;;;;;;;5.69;86.12988;919.6822;;;;
2022/11/22 04:59:06;;;;;;;3.3;1.9;;;;;;;5.68;86.30664;919.6799;;;;
2022/11/22 05:01:34;;;;;;;4.3;2.1;;;;;;;5.7;86.2666;919.6791;;;;
2022/11/22 05:03:59;;;;;;;2.9;2.3;;;;;;;5.75;86.00488;919.6742;;;;
2022/11/22 05:06:24;;;;;;;2.6;2;;;;;;;5.79;85.85645;919.7143;;;;
2022/11/22 05:08:56;;;;;;;3.3;1.8;;;;;;;5.81;85.61133;919.7296;;;;
2022/11/22 05:11:24;;;;;;;2.9;1.8;;;;;;;5.8;85.4043;919.7491;;;;
2022/11/22 05:13:50;;;;;;;2.4;1.8;;;;;;;5.76;85.72656;919.7808;;;;
2022/11/22 05:16:16;;;;;;;3.1;1.9;;;;;;;5.65;86.68457;919.7495;;;;
2022/11/22 05:18:41;;;;;;;2.1;1.8;;;;;;;5.74;86.43262;919.7974;;;;
2022/11/22 05:21:08;;;;;;;3;1.8;;;;;;;5.72;86.44043;919.8945;;;;
2022/11/22 05:26:01;;;;;;;2.3;1.4;;;;;;;5.62;86.72461;919.8111;;;;
2022/11/22 05:28:47;;;;;;;2.8;1.7;;;;;;;5.68;86.6582;919.7952;;;;
2022/11/22 05:31:17;;;;;;;3.4;1.6;;;;;;;5.71;86.89941;919.7548;;;;
2022/11/22 05:34:16;;;;;;;1.2;1.1;;;;;;;5.68;86.64746;919.8741;;;;
2022/11/22 05:36:46;;;;;;;1.6;1.4;;;;;;;5.54;87.26074;919.8647;;;;
2022/11/22 05:39:12;;;;;;;4;3.3;;;;;;;5.43;87.94824;919.8783;;;;
2022/11/22 05:41:54;;;;;;;4.1;2.4;;;;;;;5.43;87.94043;919.8348;;;;
2022/11/22 05:44:07;;;;;;;3.8;2.6;;;;;;;5.44;87.97461;919.8483;;;;
2022/11/22 05:46:32;;;;;;;4.5;2.7;;;;;;;5.38;88.3584;919.8528;;;;
2022/11/22 05:49:01;;;;;;;3.9;2.3;;;;;;;5.28;88.75488;919.882;;;;
2022/11/22 05:51:32;;;;;;;2.8;1.9;;;;;;;5.03;89.70508;919.9079;;;;
2022/11/22 05:54:01;;;;;;;2;1.7;;;;;;;4.92;90.85254;919.895;;;;
2022/11/22 05:56:26;;;;;;;2.7;1.9;;;;;;;5.06;90.69043;920.0255;;;;
2022/11/22 05:58:52;;;;;;;1.7;1.4;;;;;;;5.16;90.23926;920.0562;;;;
2022/11/22 06:01:17;;;;;;;1.8;1.6;;;;;;;5.03;90.65234;920.0436;;;;
2022/11/22 06:03:45;;;;;;;2;1.6;;;;;;;5.12;90.51367;920.0421;;;;
2022/11/22 06:06:10;;;;;;;3.9;1.6;;;;;;;5.16;90.71289;920.1437;;;;
2022/11/22 06:08:37;;;;;;;1.6;1.4;;;;;;;5.21;90.98242;920.1583;;;;
2022/11/22 06:11:03;;;;;;;2.1;1.7;;;;;;;5.34;90.50293;920.2394;;;;
2022/11/22 06:13:30;;;;;;;3;1.8;;;;;;;5.45;90.1875;920.3076;;;;
2022/11/22 06:16:01;;;;;;;4.7;2.5;;;;;;;5.39;90.00488;920.4225;;;;
2022/11/22 06:18:26;;;;;;;3;2.5;;;;;;;5.14;90.35938;920.4246;;;;
2022/11/22 06:20:55;;;;;;;3.8;2.9;;;;;;;5.26;90.56543;920.4564;;;;
2022/11/22 06:23:20;;;;;;;4.8;3;;;;;;;5.41;90.47168;920.5033;;;;
2022/11/22 06:25:48;;;;;;;6.8;2.8;;;;;;;5.44;90.60352;920.5553;;;;
2022/11/22 06:28:13;;;;;;;2.6;1.6;;;;;;;5.42;90.72363;920.6012;;;;
2022/11/22 06:30:38;;;;;;;2.5;2.1;;;;;;;5.48;90.62402;920.639;;;;
2022/11/22 06:33:07;;;;;;;3.1;1.8;;;;;;;5.46;90.51855;920.639;;;;
2022/11/22 06:35:32;;;;;;;2.1;1.7;;;;;;;5.45;90.97559;920.7307;;;;
2022/11/22 06:38:02;;;;;;;3.3;2;;;;;;;5.57;90.90137;920.8308;;;;
2022/11/22 06:40:27;;;;;;;4;3;;;;;;;5.41;91.00391;920.89;;;;
2022/11/22 06:42:57;;;;;;;4;3.1;;;;;;;5.28;91.51855;920.9196;;;;
2022/11/22 06:45:22;;;;;;;5.4;3.9;;;;;;;5.24;92.12891;920.9891;;;;
2022/11/22 06:47:57;;;;;;;8.3;5.1;;;;;;;5.28;92.46387;921.0349;;;;
2022/11/22 06:50:30;;;;;;;3.5;2.6;;;;;;;5.15;91.99805;921.0461;;;;
2022/11/22 06:52:59;;;;;;;2.8;2.4;;;;;;;5.15;92.46973;921.024;;;;
2022/11/22 06:55:24;;;;;;;4.2;2.5;;;;;;;5.27;92.41895;921.0711;;;;
2022/11/22 06:57:56;;;;;;;2.2;1.7;;;;;;;5.18;90.61523;921.084;;;;
2022/11/22 07:00:27;;;;;;;4.1;1.9;;;;;;;5.06;91.8418;920.9908;;;;
2022/11/22 07:03:01;;;;;;;2.5;1.7;;;;;;;4.91;90.69336;921.0281;;;;
2022/11/22 07:05:26;;;;;;;1.7;1.5;;;;;;;4.93;91.27148;921.0754;;;;
2022/11/22 07:07:55;;;;;;;1.9;1.5;;;;;;;4.89;90.66895;921.1353;;;;
2022/11/22 07:10:26;;;;;;;2.8;1.8;;;;;;;5.04;90.91211;921.1154;;;;
2022/11/22 07:12:51;;;;;;;2.5;1.9;;;;;;;5.06;90.79297;921.1573;;;;
2022/11/22 07:15:18;;;;;;;2.4;1.8;;;;;;;5.16;90.35254;921.0793;;;;
2022/11/22 07:17:44;;;;;;;2.2;1.6;;;;;;;5.22;90.10449;921.1358;;;;
2022/11/22 07:20:12;;;;;;;2.3;1.7;;;;;;;5.31;90.42969;921.1365;;;;
2022/11/22 07:22:37;;;;;;;2.1;1.9;;;;;;;5.25;89.9541;921.1295;;;;
2022/11/22 07:25:02;;;;;;;2.2;1.9;;;;;;;5.08;90.43652;921.1194;;;;
2022/11/22 07:28:14;;;;;;;2.2;2;;;;;;;5.16;89.95801;921.1755;;;;
2022/11/22 07:30:46;;;;;;;2.2;1.7;;;;;;;5.32;89.53906;921.1453;;;;
2022/11/22 07:33:11;;;;;;;1.5;1.4;;;;;;;5.45;89.10254;921.1615;;;;
2022/11/22 07:35:41;;;;;;;1.8;1.7;;;;;;;5.44;89.125;921.2656;;;;
2022/11/22 07:38:06;;;;;;;5.6;3.6;;;;;;;5.51;88.8125;921.3541;;;;
2022/11/22 07:40:35;;;;;;;32.7;17.6;;;;;;;5.44;88.33496;921.3848;;;;
2022/11/22 07:43:00;;;;;;;15;7.4;;;;;;;5.56;88.28027;921.4086;;;;
2022/11/22 07:45:28;;;;;;;2.1;1.9;;;;;;;5.57;87.56055;921.426;;;;
2022/11/22 07:47:53;;;;;;;2.1;1.7;;;;;;;5.56;87.49219;921.4102;;;;
2022/11/22 07:50:18;;;;;;;2.1;1.9;;;;;;;5.52;87.22363;921.4615;;;;
2022/11/22 07:52:47;;;;;;;2.1;1.7;;;;;;;5.52;87.35938;921.5751;;;;
2022/11/22 07:55:13;;;;;;;2.3;2.1;;;;;;;5.51;87.43652;921.5712;;;;
2022/11/22 07:57:41;;;;;;;2.5;2.1;;;;;;;5.39;87.27539;921.6292;;;;
2022/11/22 08:00:06;;;;;;;3.3;2.2;;;;;;;5.3;87.40332;921.584;;;;
2022/11/22 08:02:31;;;;;;;2.5;2.2;;;;;;;5.27;87.18164;921.7551;;;;
2022/11/22 08:05:00;;;;;;;2.2;2;;;;;;;5.15;87.72168;921.7759;;;;
2022/11/22 08:07:24;;;;;;;2;1.8;;;;;;;4.91;88.34961;921.8119;;;;
2022/11/22 08:09:51;;;;;;;2.4;1.7;;;;;;;4.68;88.72852;921.8013;;;;
2022/11/22 08:12:16;;;;;;;1.9;1.3;;;;;;;4.67;89.16602;921.7806;;;;
2022/11/22 08:14:44;;;;;;;1.7;1.5;;;;;;;4.77;89.35547;921.8323;;;;
2022/11/22 08:17:10;;;;;;;2;1.6;;;;;;;4.83;89.45898;921.9015;;;;
2022/11/22 08:19:37;;;;;;;1.7;1.5;;;;;;;5.02;88.95996;921.8836;;;;
2022/11/22 08:22:01;;;;;;;1.7;1.6;;;;;;;5.11;88.34668;921.9738;;;;
2022/11/22 08:24:27;;;;;;;2.8;2;;;;;;;5.19;88.44238;922.0024;;;;
2022/11/22 08:26:51;;;;;;;1.8;1.6;;;;;;;5.28;88.36914;922.0684;;;;
2022/11/22 08:29:17;;;;;;;3;1.8;;;;;;;5.36;88.16016;922.0742;;;;
2022/11/22 08:31:42;;;;;;;3;2.1;;;;;;;5.43;88.23047;922.0959;;;;
2022/11/22 08:34:08;;;;;;;3.3;2.4;;;;;;;5.44;88.16602;922.1252;;;;
2022/11/22 08:36:33;;;;;;;3.9;1.6;;;;;;;5.27;87.29785;922.2104;;;;
2022/11/22 08:39:01;;;;;;;3.9;2.3;;;;;;;5.12;88.21191;922.2042;;;;
2022/11/22 08:41:26;;;;;;;3.2;2.2;;;;;;;4.89;88.45801;922.1919;;;;
2022/11/22 08:43:53;;;;;;;3.8;2.4;;;;;;;4.82;89.67285;922.1333;;;;
2022/11/22 08:46:18;;;;;;;3.2;2.5;;;;;;;4.83;90.51855;922.2445;;;;
2022/11/22 08:48:45;;;;;;;4;2.2;;;;;;;4.75;90.08594;922.2659;;;;
2022/11/22 08:51:09;;;;;;;2.3;2;;;;;;;4.71;90.42578;922.3256;;;;
2022/11/22 08:53:36;;;;;;;1.8;1.6;;;;;;;4.65;90.72754;922.2693;;;;
2022/11/22 08:56:02;;;;;;;2.1;1.8;;;;;;;4.72;90.60938;922.4045;;;;
2022/11/22 08:58:31;;;;;;;1.7;1.6;;;;;;;4.91;89.96094;922.337;;;;
2022/11/22 09:00:55;;;;;;;3.3;1.9;;;;;;;4.94;89.0332;922.4224;;;;
2022/11/22 09:03:22;;;;;;;1.6;1.5;;;;;;;4.92;88.88281;922.4863;;;;
2022/11/22 09:05:47;;;;;;;1.7;1.5;;;;;;;4.72;88.40039;922.4833;;;;
2022/11/22 09:08:12;;;;;;;4.2;2;;;;;;;4.77;88.20703;922.5545;;;;
2022/11/22 09:10:39;;;;;;;1.6;1.5;;;;;;;4.78;88.50098;922.5633;;;;
2022/11/22 09:13:04;;;;;;;1.9;1.5;;;;;;;4.94;88.26465;922.5502;;;;
2022/11/22 09:15:38;;;;;;;1.6;1.4;;;;;;;5.03;87.32715;922.5516;;;;
2022/11/22 09:18:09;;;;;;;1.3;1.2;;;;;;;5.09;87.26855;922.5488;;;;
2022/11/22 09:20:39;;;;;;;3.5;1.7;;;;;;;5.08;86.6377;922.6497;;;;
2022/11/22 09:23:04;;;;;;;2;1.8;;;;;;;4.85;87.16602;922.616;;;;
2022/11/22 09:25:33;;;;;;;1.3;1.2;;;;;;;4.55;87.44336;922.7619;;;;
2022/11/22 09:27:58;;;;;;;2.2;2;;;;;;;4.43;88.23926;922.8588;;;;
2022/11/22 09:30:28;;;;;;;1.7;1.6;;;;;;;4.28;89.37695;922.8676;;;;
2022/11/22 09:32:53;;;;;;;1.5;1.4;;;;;;;4.26;89.2627;922.8383;;;;
2022/11/22 09:35:23;;;;;;;2.6;2.4;;;;;;;4.17;89.63574;922.8546;;;;
2022/11/22 09:37:52;;;;;;;2.5;2;;;;;;;4.1;90.14941;922.8697;;;;
2022/11/22 09:40:17;;;;;;;2.2;2;;;;;;;4.04;90.10449;922.7961;;;;
2022/11/22 09:42:45;;;;;;;2;1.8;;;;;;;4.07;90.2002;922.7916;;;;
2022/11/22 09:45:13;;;;;;;1.5;1.4;;;;;;;3.95;90.66016;922.8572;;;;
2022/11/22 09:47:38;;;;;;;1.9;1.6;;;;;;;3.89;90.80273;922.885;;;;
2022/11/22 09:50:03;;;;;;;2.9;1.6;;;;;;;3.8;91.22363;922.8771;;;;
2022/11/22 09:52:33;;;;;;;1.7;1.6;;;;;;;3.69;91.69238;922.7789;;;;
2022/11/22 09:54:59;;;;;;;2.4;1.9;;;;;;;3.6;92.59668;922.8304;;;;
2022/11/22 09:57:24;;;;;;;2.5;2.1;;;;;;;3.75;92.69336;922.8187;;;;
2022/11/22 09:59:49;;;;;;;3.9;2.8;;;;;;;3.63;93.28613;922.8499;;;;
2022/11/22 10:02:14;;;;;;;2.9;2.5;;;;;;;3.72;93.14844;922.9508;;;;
2022/11/22 10:04:39;;;;;;;2.5;2.2;;;;;;;3.82;93.50879;922.993;;;;
2022/11/22 10:07:04;;;;;;;2.7;2;;;;;;;3.93;93.30566;923.0089;;;;
2022/11/22 10:09:29;;;;;;;3.6;1.9;;;;;;;3.9;93.66211;923.041;;;;
2022/11/22 10:12:30;;;;;;;2.5;1.8;;;;;;;3.94;93.46777;923.0146;;;;
2022/11/22 10:14:56;;;;;;;2.4;2.2;;;;;;;3.71;93.13477;923.0097;;;;
2022/11/22 10:17:21;;;;;;;2.7;2;;;;;;;3.67;93.86816;922.8897;;;;
2022/11/22 10:19:46;;;;;;;3.3;1.9;;;;;;;3.58;94.04004;922.8773;;;;
2022/11/22 10:22:11;;;;;;;3.5;2.9;;;;;;;3.72;94.37305;922.7776;;;;
2022/11/22 10:24:36;;;;;;;9.5;6.1;;;;;;;3.83;94.43262;922.7364;;;;
2022/11/22 10:27:01;;;;;;;8.1;5.4;;;;;;;4.13;93.96094;922.7653;;;;
2022/11/22 10:29:27;;;;;;;6.5;4.9;;;;;;;4.25;93.10742;922.7838;;;;
2022/11/22 10:31:52;;;;;;;6.2;4.5;;;;;;;4.34;92.35059;922.7798;;;;
2022/11/22 10:34:19;;;;;;;5.3;3.7;;;;;;;4.47;92.43652;922.7644;;;;
2022/11/22 10:36:45;;;;;;;3.4;2.6;;;;;;;4.41;92.05078;922.7372;;;;
2022/11/22 10:39:09;;;;;;;3.3;2.6;;;;;;;4.41;91.09375;922.8137;;;;
2022/11/22 10:41:35;;;;;;;3.4;2.7;;;;;;;4.45;90.70801;922.8494;;;;
2022/11/22 10:44:00;;;;;;;3.9;2.4;;;;;;;4.42;90.71289;922.7988;;;;
2022/11/22 10:46:26;;;;;;;5.8;3.3;;;;;;;4.5;89.80762;922.8348;;;;
2022/11/22 10:48:51;;;;;;;4.7;2.9;;;;;;;4.56;90.28223;922.8447;;;;
2022/11/22 10:51:16;;;;;;;4;2.8;;;;;;;4.7;89.45508;922.8703;;;;
2022/11/22 10:53:41;;;;;;;4.2;2.8;;;;;;;4.86;89.17383;922.8147;;;;
2022/11/22 10:56:07;;;;;;;4;3.3;;;;;;;5.03;89.16406;922.7425;;;;
2022/11/22 10:58:32;;;;;;;4.6;3.3;;;;;;;5.13;88.15918;922.7137;;;;
2022/11/22 11:00:58;;;;;;;4;2.8;;;;;;;5.17;87.53516;922.7162;;;;
2022/11/22 11:03:26;;;;;;;5.6;2.9;;;;;;;5.25;86.44434;922.6514;;;;
2022/11/22 11:05:50;;;;;;;3.3;2.5;;;;;;;5.33;86.1582;922.5941;;;;
2022/11/22 11:08:15;;;;;;;3.5;2.6;;;;;;;5.31;85.70215;922.6208;;;;
2022/11/22 11:10:41;;;;;;;4.7;2.9;;;;;;;4.97;86.66992;922.6497;;;;
2022/11/22 11:13:06;;;;;;;5.8;3.2;;;;;;;4.91;87.97754;922.673;;;;
2022/11/22 11:15:36;;;;;;;6.5;3.5;;;;;;;4.87;88.64551;922.6105;;;;
2022/11/22 11:18:01;;;;;;;5.7;4.1;;;;;;;4.81;89.24121;922.6749;;;;
2022/11/22 11:20:27;;;;;;;5.7;3.7;;;;;;;4.81;89.5791;922.5976;;;;
2022/11/22 11:22:52;;;;;;;4.5;3.7;;;;;;;4.84;90.07129;922.6041;;;;
2022/11/22 11:25:17;;;;;;;3.8;3.3;;;;;;;4.83;89.57129;922.6323;;;;
2022/11/22 11:27:42;;;;;;;8.6;4.5;;;;;;;4.65;90.17578;922.6224;;;;
2022/11/22 11:30:10;;;;;;;5.7;4;;;;;;;4.64;91.09961;922.6295;;;;
2022/11/22 11:32:35;;;;;;;4.9;3.5;;;;;;;4.74;91.3457;922.4827;;;;
2022/11/22 11:35:00;;;;;;;4.5;2.9;;;;;;;4.78;90.67578;922.5372;;;;
2022/11/22 11:37:25;;;;;;;3.9;3;;;;;;;4.83;90.82227;922.5433;;;;
2022/11/22 11:39:55;;;;;;;3.5;2.5;;;;;;;4.95;91.27539;922.5059;;;;
2022/11/22 11:42:22;;;;;;;2.8;1.9;;;;;;;5.03;90.08887;922.4656;;;;
2022/11/22 11:44:47;;;;;;;4.1;2;;;;;;;4.85;88.47363;922.4661;;;;
2022/11/22 11:47:12;;;;;;;2.4;2.2;;;;;;;4.93;90.07715;922.3892;;;;
2022/11/22 11:49:40;;;;;;;1.8;1.7;;;;;;;4.92;90.30273;922.3837;;;;
2022/11/22 11:52:07;;;;;;;1.9;1.5;;;;;;;4.99;90.39453;922.4069;;;;
2022/11/22 11:54:30;;;;;;;2.2;2.1;;;;;;;5.09;90.84473;922.421;;;;
2022/11/22 11:56:58;;;;;;;1.6;1.5;;;;;;;5.09;89.88574;922.3799;;;;
2022/11/22 11:59:23;;;;;;;1.9;1.6;;;;;;;5.19;89.79395;922.4545;;;;
2022/11/22 12:01:48;;;;;;;1.9;1.7;;;;;;;5.42;89.9541;922.5197;;;;
2022/11/22 12:04:13;;;;;;;4.6;3.4;;;;;;;5.35;89.23047;922.5287;;;;
2022/11/22 12:06:38;;;;;;;2.8;2.1;;;;;;;5.22;87.67969;922.5464;;;;
2022/11/22 12:09:03;;;;;;;3.8;2.5;;;;;;;5.11;88.05176;922.5488;;;;
2022/11/22 12:11:28;;;;;;;2.6;2.4;;;;;;;5.08;89.3877;922.54;;;;
2022/11/22 12:13:54;;;;;;;2.8;2.1;;;;;;;5.16;90.25098;922.5128;;;;
2022/11/22 12:16:23;;;;;;;2;1.8;;;;;;;5.3;90.12305;922.4883;;;;
2022/11/22 12:18:48;;;;;;;1.9;1.7;;;;;;;5.35;89.27734;922.4821;;;;
2022/11/22 12:21:13;;;;;;;2.2;1.8;;;;;;;5.23;88.56152;922.4447;;;;
2022/11/22 12:23:38;;;;;;;2.4;1.4;;;;;;;5.07;89.09277;922.3964;;;;
2022/11/22 12:26:03;;;;;;;2.6;2;;;;;;;5.27;89.40527;922.3918;;;;
2022/11/22 12:28:29;;;;;;;2.9;2.4;;;;;;;5.46;88.86035;922.3162;;;;
2022/11/22 12:30:54;;;;;;;3.7;2.6;;;;;;;5.63;87.70898;922.3531;;;;
2022/11/22 12:33:19;;;;;;;4.9;2.7;;;;;;;5.75;86.91992;922.2199;;;;
2022/11/22 12:35:44;;;;;;;3.6;2.6;;;;;;;5.68;87.11035;922.313;;;;
2022/11/22 12:38:12;;;;;;;4.6;3.4;;;;;;;5.17;87.9541;922.3636;;;;
2022/11/22 12:40:37;;;;;;;5.8;4;;;;;;;5.17;88.93359;922.3502;;;;
2022/11/22 12:43:06;;;;;;;6.4;4.2;;;;;;;5.17;89.58691;922.3108;;;;
2022/11/22 12:45:31;;;;;;;6.5;3.9;;;;;;;5.23;89.54395;922.2955;;;;
2022/11/22 12:47:58;;;;;;;6.2;4.2;;;;;;;5.22;89.93555;922.327;;;;
2022/11/22 12:50:23;;;;;;;5.5;3.5;;;;;;;5.17;90.2998;922.28;;;;
2022/11/22 12:52:48;;;;;;;3.9;2.9;;;;;;;4.69;90.3877;922.2096;;;;
2022/11/22 12:55:14;;;;;;;4.2;2.8;;;;;;;4.82;91.44043;922.2129;;;;
2022/11/22 12:57:39;;;;;;;2.5;2.3;;;;;;;4.97;90.61816;922.2056;;;;
2022/11/22 13:00:04;;;;;;;3;2.6;;;;;;;4.96;90.24219;922.1599;;;;
2022/11/22 13:02:29;;;;;;;6.3;4.4;;;;;;;4.95;90.91699;922.133;;;;
2022/11/22 13:04:54;;;;;;;5.3;3.9;;;;;;;5.07;91.5957;922.1599;;;;
2022/11/22 13:07:19;;;;;;;4.4;3.4;;;;;;;5.11;90.69043;922.2222;;;;
2022/11/22 13:09:45;;;;;;;4.5;2.8;;;;;;;5.08;90.61719;922.2695;;;;
2022/11/22 13:12:11;;;;;;;3.6;2.8;;;;;;;4.86;91.14551;922.2612;;;;
2022/11/22 13:14:36;;;;;;;4.1;3.7;;;;;;;4.88;91.72363;922.2281;;;;
2022/11/22 13:17:01;;;;;;;4.1;3.4;;;;;;;5.01;91.45801;922.1691;;;;
2022/11/22 13:19:26;;;;;;;4.7;3.4;;;;;;;5.22;91.66211;922.1716;;;;
2022/11/22 13:21:51;;;;;;;4.3;2.8;;;;;;;5.32;91.34375;922.2184;;;;
2022/11/22 13:24:20;;;;;;;5.1;3.2;;;;;;;5.33;90.50098;922.2414;;;;
2022/11/22 13:26:46;;;;;;;4.2;3.3;;;;;;;5.35;90.19141;922.2644;;;;
2022/11/22 13:29:11;;;;;;;4;2.4;;;;;;;5.28;89.39551;922.2798;;;;
2022/11/22 13:31:36;;;;;;;2.7;2.3;;;;;;;5.4;89.46777;922.2527;;;;
2022/11/22 13:34:01;;;;;;;3.9;2.7;;;;;;;5.3;89.17383;922.3186;;;;
2022/11/22 13:36:31;;;;;;;4;2.9;;;;;;;5.44;89.35059;922.3217;;;;
2022/11/22 13:38:56;;;;;;;3.4;2.7;;;;;;;5.55;89.6084;922.3084;;;;
2022/11/22 13:41:22;;;;;;;4.7;2.8;;;;;;;5.48;89.9248;922.3368;;;;
2022/11/22 13:43:47;;;;;;;5.8;3.9;;;;;;;5.44;90.52441;922.4053;;;;
2022/11/22 13:46:13;;;;;;;5.9;3.2;;;;;;;5.33;89.57617;922.3376;;;;
2022/11/22 13:48:38;;;;;;;4.9;3.7;;;;;;;5.34;89.9375;922.4135;;;;
2022/11/22 13:51:03;;;;;;;5.3;3.7;;;;;;;5.33;90.0498;922.4473;;;;
2022/11/22 13:53:29;;;;;;;6.3;4.4;;;;;;;5.28;90.52344;922.4077;;;;
2022/11/22 13:55:56;;;;;;;38.5;23.4;;;;;;;5.17;90.61328;922.4543;;;;
2022/11/22 13:58:21;;;;;;;85.3;48.7;;;;;;;5.13;91.55273;922.5245;;;;
2022/11/22 14:00:46;;;;;;;7.8;5;;;;;;;5.21;91.29785;922.4958;;;;
2022/11/22 14:03:12;;;;;;;46;28.2;;;;;;;5.33;91.40332;922.5176;;;;
2022/11/22 14:05:39;;;;;;;5;3.9;;;;;;;5.38;91.33594;922.4294;;;;
2022/11/22 14:08:05;;;;;;;6.4;5.2;;;;;;;5.3;90.71973;922.5349;;;;
2022/11/22 14:10:30;;;;;;;7.2;5.8;;;;;;;5.39;90.8291;922.5706;;;;
2022/11/22 14:12:56;;;;;;;6.5;5;;;;;;;5.49;90.91797;922.5555;;;;
2022/11/22 14:15:21;;;;;;;5.5;3.9;;;;;;;5.54;90.5;922.6376;;;;
2022/11/22 14:17:46;;;;;;;4.2;3.3;;;;;;;5.49;89.8584;922.6541;;;;
2022/11/22 14:20:11;;;;;;;3.2;2.6;;;;;;;5.3;90.11035;922.6516;;;;
2022/11/22 14:22:41;;;;;;;5;2.8;;;;;;;5.17;90.87305;922.7297;;;;
2022/11/22 14:25:06;;;;;;;3.5;2.7;;;;;;;5.13;91.17871;922.7414;;;;
2022/11/22 14:27:31;;;;;;;4.5;3.3;;;;;;;5.11;91.49121;922.7335;;;;
2022/11/22 14:29:56;;;;;;;4.9;3.4;;;;;;;5.24;91.74512;922.5505;;;;
2022/11/22 14:32:25;;;;;;;5.5;3.4;;;;;;;5.21;91.77148;922.5715;;;;
2022/11/22 14:34:50;;;;;;;5.1;3.7;;;;;;;5.12;92.46387;922.623;;;;
2022/11/22 14:37:15;;;;;;;6.2;4.2;;;;;;;5.1;92.44727;922.5457;;;;
2022/11/22 14:39:41;;;;;;;7.4;4.4;;;;;;;5.06;92.66504;922.5234;;;;
2022/11/22 14:42:06;;;;;;;7.4;4.2;;;;;;;5.01;92.93457;922.5949;;;;
2022/11/22 14:44:41;;;;;;;8.6;4.9;;;;;;;4.94;93.19141;922.6779;;;;
2022/11/22 14:47:11;;;;;;;13.9;6.7;;;;;;;5;93.50977;922.6703;;;;
2022/11/22 14:49:35;;;;;;;10;6.6;;;;;;;5.03;93.58301;922.7283;;;;
2022/11/22 14:52:16;;;;;;;8.4;5.7;;;;;;;4.87;93.19824;922.7469;;;;
2022/11/22 14:58:04;;;;;;;6.3;4.4;;;;;;;4.85;94.1748;922.6806;;;;
2022/11/22 15:00:31;;;;;;;8.4;5.3;;;;;;;4.94;93.86816;922.8017;;;;
2022/11/22 15:02:56;;;;;;;6.4;4.8;;;;;;;4.95;94.03711;922.8514;;;;
2022/11/22 15:05:21;;;;;;;3.6;3.1;;;;;;;4.96;93.74609;922.7773;;;;
2022/11/22 15:07:46;;;;;;;4.3;3.3;;;;;;;4.72;94.37012;922.8372;;;;
2022/11/22 15:10:15;;;;;;;5.3;3.5;;;;;;;4.83;94.75488;922.7893;;;;
2022/11/22 15:12:46;;;;;;;7.4;4.3;;;;;;;4.88;94.54102;922.8779;;;;
2022/11/22 15:15:13;;;;;;;4.2;2.9;;;;;;;4.77;94.31445;922.9141;;;;
2022/11/22 15:17:38;;;;;;;7.7;4.8;;;;;;;4.86;93.98535;922.8967;;;;
2022/11/22 15:20:08;;;;;;;11.5;7.3;;;;;;;4.73;94.36035;922.8987;;;;
2022/11/22 15:22:34;;;;;;;8.7;5.9;;;;;;;4.82;94.24512;922.9122;;;;
2022/11/22 15:25:04;;;;;;;11.1;6.4;;;;;;;5.01;93.91504;922.8591;;;;
2022/11/22 15:27:28;;;;;;;9.6;6.2;;;;;;;5.02;93.92871;922.8371;;;;
2022/11/22 15:29:52;;;;;;;12.7;7.9;;;;;;;4.95;94.48926;922.868;;;;
2022/11/22 15:32:19;;;;;;;7.1;4.1;;;;;;;4.99;94.23633;922.8516;;;;
2022/11/22 15:34:46;;;;;;;4.5;2.9;;;;;;;5.04;93.60547;922.9169;;;;
2022/11/22 15:37:12;;;;;;;7.7;4.5;;;;;;;5.09;93.12207;922.8508;;;;
2022/11/22 15:39:37;;;;;;;8.8;5.3;;;;;;;5.13;92.69141;922.87;;;;
2022/11/22 15:42:02;;;;;;;7.1;4.4;;;;;;;5.14;92.64844;922.8708;;;;
2022/11/22 15:44:29;;;;;;;6.7;4.1;;;;;;;5.22;92.40527;922.8833;;;;
2022/11/22 15:46:55;;;;;;;5.4;4.2;;;;;;;5.22;91.79785;922.899;;;;
2022/11/22 15:49:24;;;;;;;7.1;4.6;;;;;;;5.2;91.63379;922.8703;;;;
2022/11/22 15:51:49;;;;;;;7;5.4;;;;;;;5.25;91.49902;922.9789;;;;
2022/11/22 15:54:18;;;;;;;12;6.6;;;;;;;5.27;91.3584;922.9663;;;;
2022/11/22 15:56:41;;;;;;;11.9;6.7;;;;;;;5.23;91.66406;923.0143;;;;
2022/11/22 15:59:07;;;;;;;11.5;5.9;;;;;;;5.12;92.01367;923.0198;;;;
2022/11/22 16:01:35;;;;;;;11.3;6.8;;;;;;;5;92.5293;923.1144;;;;
2022/11/22 16:04:00;;;;;;;14.8;7.2;;;;;;;4.89;92.89844;923.0892;;;;